Weather at Benone Strand/Londerry Airfield [CLOSED]

Public forecast

Using degrees Celsius for public forecast. Weather courtesy of forecast.io.

Closest aviation weather report (METAR) to Benone Strand/Londerry Airfield

Report is more than 6 hours old.

Closest report is City of Derry Airport, 12.8 nm (23.6 km) SW.

2024/05/19 19:50 (retrieved 7 hours ago)

EGAE 191950Z 05009KT 9999 7000E FEW002 BKN005 12/11 Q1018

Closest aviation forecast (TAF) to Benone Strand/Londerry Airfield

Forecast is more than 12 hours old.

Closest forecast is Isle of Man Airport, 101.3 nm (187.6 km) SE.

2024/05/19 06:12 (retrieved 21 hours ago)

TAF TAF EGNS 190500Z 1906/1918 35006KT 9999 FEW006